Time;durP1;ratioP1;P1;durP2;ratioP2;P2;SDS_P1;SDS_P2;PMS_P1;PMS_P2;Temp;Humidity;BMP_temperature;BMP_pressure;BME280_temperature;BME280_humidity;BME280_pressure;Samples;Min_cycle;Max_cycle;Signal;HPM_P1;HPM_P2
2023/03/25 00:00:17;;;;;;;1.73;0.93;;;10.80;68.00;;;6.19;100.00;95219.03;4971727;28;20092;-51
2023/03/25 00:02:51;;;;;;;1.13;0.70;;;10.70;68.10;;;6.14;100.00;95221.63;4991437;28;20034;-47
2023/03/25 00:05:21;;;;;;;3.33;0.80;;;10.60;68.20;;;6.07;100.00;95213.06;4992988;28;20539;-47
2023/03/25 00:07:51;;;;;;;2.85;0.82;;;10.60;68.30;;;6.07;100.00;95215.69;4978015;28;20061;-47
2023/03/25 00:10:18;;;;;;;2.88;0.80;;;10.60;68.50;;;6.09;100.00;95215.47;4973160;28;20485;-48
2023/03/25 00:12:44;;;;;;;4.57;1.27;;;10.50;68.60;;;6.11;100.00;95231.88;4973405;28;20404;-47
2023/03/25 00:15:12;;;;;;;5.05;1.10;;;10.50;68.70;;;6.07;100.00;95244.78;4989208;28;20022;-48
2023/03/25 00:17:38;;;;;;;2.67;1.13;;;10.50;68.80;;;6.07;100.00;95250.06;4991239;28;20492;-47
2023/03/25 00:20:08;;;;;;;4.30;1.38;;;10.50;69.00;;;6.05;100.00;95267.22;4981901;28;20431;-49
2023/03/25 00:22:39;;;;;;;4.57;1.20;;;10.50;69.20;;;6.12;100.00;95273.16;4990298;28;20534;-47
2023/03/25 00:25:09;;;;;;;7.53;1.30;;;10.50;69.50;;;6.03;100.00;95276.22;4985186;28;20018;-48
2023/03/25 00:27:35;;;;;;;3.35;0.90;;;10.50;69.80;;;5.97;100.00;95265.81;4972888;28;20083;-48
2023/03/25 00:30:02;;;;;;;3.10;1.27;;;10.40;69.70;;;5.89;100.00;95274.94;4972736;28;20532;-55
2023/03/25 00:32:31;;;;;;;2.17;0.75;;;10.30;69.70;;;5.80;100.00;95266.59;4990528;28;20030;-51
2023/03/25 00:34:58;;;;;;;1.52;0.70;;;10.30;69.80;;;5.76;100.00;95277.88;4991060;28;20049;-49
2023/03/25 00:37:25;;;;;;;1.25;0.60;;;10.20;69.80;;;5.77;100.00;95282.94;4990767;28;20080;-48
2023/03/25 00:39:51;;;;;;;2.10;0.90;;;10.20;70.00;;;5.71;100.00;95251.41;4991800;28;20022;-48
2023/03/25 00:42:24;;;;;;;1.88;0.80;;;10.10;70.00;;;5.68;100.00;95244.75;4990802;28;20160;-49
2023/03/25 00:44:52;;;;;;;;;;;10.00;70.10;;;5.65;100.00;95233.88;4992632;28;20029;-49
2023/03/25 00:47:20;;;;;;;2.75;0.43;;;10.00;70.00;;;5.62;100.00;95210.56;4992082;28;19958;-48
2023/03/25 00:49:48;;;;;;;2.55;0.70;;;9.90;70.30;;;5.68;99.59;95231.53;4986903;28;20022;-48
2023/03/25 00:52:15;;;;;;;2.58;0.70;;;9.90;70.60;;;5.70;100.00;95232.09;4971291;28;20061;-49
2023/03/25 00:54:42;;;;;;;2.47;0.82;;;9.90;70.70;;;5.73;100.00;95236.88;4977060;28;20438;-48
2023/03/25 00:57:08;;;;;;;1.05;0.57;;;9.90;70.70;;;5.73;100.00;95236.09;4991956;28;20061;-52
2023/03/25 00:59:34;;;;;;;1.85;0.60;;;9.90;70.70;;;5.69;100.00;95235.78;4990618;28;20046;-48
2023/03/25 01:02:01;;;;;;;0.98;0.50;;;9.90;70.70;;;5.70;100.00;95218.91;4990379;28;20092;-48
2023/03/25 01:04:28;;;;;;;2.63;0.70;;;9.90;70.70;;;5.70;100.00;95218.06;4974517;28;20053;-50
2023/03/25 01:06:54;;;;;;;2.08;0.52;;;10.00;70.70;;;5.71;100.00;95224.97;4990388;28;20422;-51
2023/03/25 01:09:20;;;;;;;2.42;0.60;;;10.00;70.70;;;5.76;100.00;95217.91;4990565;28;20033;-48
2023/03/25 01:11:48;;;;;;;2.60;0.73;;;10.00;70.60;;;5.78;100.00;95225.59;4990583;28;20395;-51
2023/03/25 01:14:23;;;;;;;1.60;0.65;;;10.10;70.60;;;5.77;100.00;95213.44;4990467;28;20018;-48
2023/03/25 01:16:49;;;;;;;2.05;0.70;;;10.10;70.50;;;5.73;100.00;95205.16;4991859;28;20083;-49
2023/03/25 01:19:15;;;;;;;1.75;0.70;;;10.10;70.40;;;5.71;100.00;95212.56;4985332;28;20034;-48
2023/03/25 01:21:43;;;;;;;0.82;0.65;;;10.10;70.40;;;5.73;100.00;95186.66;4971825;28;20025;-53
2023/03/25 01:24:14;;;;;;;2.60;0.57;;;10.10;70.30;;;5.70;100.00;95196.94;4972400;28;20388;-52
2023/03/25 01:26:42;;;;;;;1.05;0.55;;;10.10;70.30;;;5.70;98.77;95186.34;4990572;28;20017;-48
2023/03/25 01:29:16;;;;;;;2.55;0.70;;;10.10;70.40;;;5.70;98.71;95197.75;4991837;28;20029;-49
2023/03/25 01:31:43;;;;;;;3.13;0.73;;;10.10;70.30;;;5.73;99.51;95197.22;4985742;28;20057;-49
2023/03/25 01:34:09;;;;;;;1.20;0.60;;;10.00;70.20;;;5.71;99.62;95191.41;4972165;28;20033;-50
2023/03/25 01:36:38;;;;;;;2.47;0.57;;;10.10;70.10;;;5.65;99.46;95200.31;4975870;28;20041;-50
2023/03/25 01:39:07;;;;;;;3.03;0.60;;;10.10;70.00;;;5.62;99.91;95206.06;4974150;28;20115;-48
2023/03/25 01:41:36;;;;;;;2.47;0.60;;;10.00;70.00;;;5.57;99.83;95213.91;4990252;28;20030;-49
2023/03/25 01:44:20;;;;;;;1.67;0.75;;;10.00;69.90;;;5.55;100.00;95218.66;4985976;28;20033;-48
2023/03/25 01:46:51;;;;;;;1.90;0.52;;;10.00;70.00;;;5.56;99.90;95213.13;4972074;28;20021;-49
2023/03/25 01:49:44;;;;;;;1.92;0.57;;;10.00;70.10;;;5.59;98.91;95216.34;4980564;28;20022;-48
2023/03/25 01:52:23;;;;;;;0.85;0.52;;;10.00;70.20;;;5.63;98.57;95212.94;4973119;28;20018;-48
2023/03/25 01:54:54;;;;;;;2.20;0.60;;;10.00;70.30;;;5.63;98.86;95212.94;4973831;28;20026;-52
2023/03/25 01:57:24;;;;;;;4.55;0.70;;;10.00;70.30;;;5.67;98.77;95198.22;4974328;28;20033;-48
2023/03/25 01:59:54;;;;;;;1.85;0.55;;;10.00;70.30;;;5.69;98.41;95193.50;4974293;28;20026;-48
2023/03/25 02:02:35;;;;;;;2.42;0.55;;;10.00;70.30;;;5.67;97.54;95182.38;4993078;28;20013;-48
2023/03/25 02:05:19;;;;;;;0.93;0.43;;;10.00;70.10;;;5.69;98.18;95182.13;4993770;28;20033;-49
2023/03/25 02:07:48;;;;;;;2.72;0.80;;;10.10;71.00;;;5.70;98.61;95186.34;4988852;28;20045;-52
2023/03/25 02:10:16;;;;;;;1.80;0.60;;;10.10;70.30;;;5.72;98.70;95179.00;4974272;28;20062;-48
2023/03/25 02:12:44;;;;;;;2.55;1.02;;;10.10;70.40;;;5.76;98.33;95194.09;4974525;28;20080;-48
2023/03/25 02:15:16;;;;;;;2.08;0.60;;;10.10;70.40;;;5.82;98.22;95210.84;4975357;28;20027;-48
2023/03/25 02:17:57;;;;;;;4.47;0.60;;;10.20;70.60;;;5.85;99.17;95209.56;4973725;28;20034;-48
2023/03/25 02:21:17;;;;;;;2.33;0.80;;;10.20;70.50;;;5.83;99.79;95162.25;4985239;28;20029;-47
2023/03/25 02:24:35;;;;;;;1.20;0.57;;;10.20;71.20;;;5.79;98.14;95196.25;4974326;28;20366;-49
2023/03/25 02:27:44;;;;;;;1.85;0.63;;;10.10;70.30;;;5.83;99.27;95180.75;4927806;28;20034;-49
2023/03/25 02:30:56;;;;;;;6.63;0.90;;;10.10;70.50;;;5.81;100.00;95182.81;4970744;28;20030;-49
2023/03/25 02:33:52;;;;;;;4.43;0.70;;;10.10;70.50;;;5.76;100.00;95174.81;4989663;28;20515;-50
2023/03/25 02:36:49;;;;;;;1.02;0.50;;;10.00;70.50;;;5.70;98.59;95168.69;4989129;28;20033;-48
2023/03/25 02:39:23;;;;;;;1.48;0.50;;;10.00;70.50;;;5.66;99.32;95175.47;4990711;28;20029;-51
2023/03/25 02:42:19;;;;;;;4.03;0.73;;;10.00;70.50;;;5.59;99.88;95168.78;4990646;28;20117;-49
2023/03/25 02:45:05;;;;;;;0.88;0.60;;;10.00;70.40;;;5.56;100.00;95170.84;4969769;28;20563;-48
2023/03/25 02:47:38;;;;;;;4.03;0.73;;;9.90;70.40;;;5.52;100.00;95171.59;4969956;28;20433;-49
2023/03/25 02:50:16;;;;;;;3.50;0.75;;;9.90;70.40;;;5.51;100.00;95172.59;4980383;28;20037;-53
2023/03/25 02:52:59;;;;;;;1.13;0.50;;;9.90;70.40;;;5.52;100.00;95171.59;4971858;28;20018;-51
2023/03/25 02:55:30;;;;;;;2.15;0.70;;;9.90;70.60;;;5.55;100.00;95169.25;4972671;28;20033;-49
2023/03/25 02:58:02;;;;;;;3.53;0.70;;;10.00;70.60;;;5.55;100.00;95171.91;4973209;28;20130;-48
2023/03/25 03:00:31;;;;;;;2.97;0.77;;;10.00;70.60;;;5.52;100.00;95172.38;4975798;28;20388;-47
2023/03/25 03:03:02;;;;;;;2.38;0.88;;;10.00;70.60;;;5.60;100.00;95205.50;4992788;28;20022;-49
2023/03/25 03:05:41;;;;;;;5.80;0.95;;;10.00;70.80;;;5.61;100.00;95220.34;4993551;28;20021;-49
2023/03/25 03:08:49;;;;;;;2.47;0.77;;;10.10;70.90;;;5.60;100.00;95220.56;4987401;28;20030;-47
2023/03/25 03:11:41;;;;;;;4.05;0.88;;;10.10;70.80;;;5.72;100.00;95251.16;4972917;28;20041;-50
2023/03/25 03:14:58;;;;;;;2.72;0.60;;;10.10;71.00;;;5.57;100.00;95293.19;4956413;28;20113;-49
2023/03/25 03:18:05;;;;;;;1.67;0.30;;;10.00;70.90;;;5.01;100.00;95302.78;4973947;28;20030;-48
2023/03/25 03:20:49;;;;;;;0.40;0.40;;;9.80;70.30;;;4.73;100.00;95304.41;4968611;28;20374;-48
2023/03/25 03:23:54;;;;;;;0.95;0.35;;;9.70;69.90;;;4.58;100.00;95314.63;4972863;28;20083;-49
2023/03/25 03:26:28;;;;;;;3.33;0.38;;;9.50;69.70;;;4.46;100.00;95319.94;4990247;28;20140;-48
2023/03/25 03:29:11;;;;;;;0.95;0.40;;;9.30;69.60;;;4.34;100.00;95325.22;4993327;28;20021;-47
2023/03/25 03:32:12;;;;;;;1.65;0.50;;;9.20;69.70;;;4.19;100.00;95338.06;4992051;28;20439;-49
2023/03/25 03:34:54;;;;;;;0.43;0.30;;;9.10;69.80;;;4.15;100.00;95348.28;4992124;28;20033;-47
2023/03/25 03:37:42;;;;;;;1.42;0.30;;;8.90;69.90;;;4.07;100.00;95332.00;4971332;28;20030;-49
2023/03/25 03:40:20;;;;;;;1.25;0.50;;;8.80;70.00;;;4.06;100.00;95319.84;4972608;28;20073;-47
2023/03/25 03:43:08;;;;;;;1.60;0.40;;;8.80;70.20;;;4.01;100.00;95325.00;4971746;28;20022;-50
2023/03/25 03:45:47;;;;;;;0.88;0.30;;;8.70;70.30;;;3.99;100.00;95321.81;4972531;28;20030;-50
2023/03/25 03:49:00;;;;;;;1.10;0.57;;;8.70;70.40;;;3.91;100.00;95320.31;4987699;28;20105;-50
2023/03/25 03:51:47;;;;;;;2.33;0.30;;;8.60;70.40;;;3.88;100.00;95323.41;4975726;28;20041;-51
2023/03/25 03:54:25;;;;;;;0.35;0.30;;;8.50;70.40;;;3.88;100.00;95304.94;4972251;28;20018;-47
2023/03/25 03:57:14;;;;;;;0.20;0.20;;;8.50;70.50;;;3.72;100.00;95312.50;4976031;28;20547;-48
2023/03/25 04:00:40;;;;;;;0.32;0.32;;;8.50;70.50;;;3.69;100.00;95315.59;4991451;28;20034;-48
2023/03/25 04:03:23;;;;;;;2.78;0.40;;;8.40;70.50;;;3.63;100.00;95313.84;4989044;28;20530;-49
2023/03/25 04:06:07;;;;;;;0.77;0.40;;;8.40;70.70;;;3.64;100.00;95318.13;4987443;28;20022;-49
2023/03/25 04:09:17;;;;;;;1.85;0.30;;;8.30;70.70;;;3.64;100.00;95302.31;4992245;28;20018;-47
2023/03/25 04:12:16;;;;;;;0.25;0.25;;;8.30;70.70;;;3.66;100.00;95310.78;4973300;28;20026;-49
2023/03/25 04:14:43;;;;;;;1.77;0.40;;;8.30;70.70;;;3.64;100.00;95298.88;4971317;28;20026;-49
2023/03/25 04:17:10;;;;;;;1.52;0.40;;;8.20;70.80;;;3.68;100.00;95300.03;4955718;28;20032;-47
2023/03/25 04:19:36;;;;;;;0.35;0.32;;;8.20;70.90;;;3.64;100.00;95297.03;4974485;28;20133;-47
2023/03/25 04:22:05;;;;;;;1.17;0.43;;;8.20;70.90;;;3.67;100.00;95311.59;4992017;28;20040;-47
2023/03/25 04:24:32;;;;;;;0.30;0.30;;;8.20;70.90;;;3.66;100.00;95300.22;4989705;28;20057;-47
2023/03/25 04:27:03;;;;;;;1.10;0.22;;;8.30;71.00;;;3.67;100.00;95291.31;4992099;28;20022;-46
2023/03/25 04:29:32;;;;;;;0.43;0.30;;;8.30;70.90;;;3.74;100.00;95272.75;4990967;28;20026;-47
2023/03/25 04:32:00;;;;;;;0.30;0.20;;;8.30;70.90;;;3.74;100.00;95283.31;4989472;28;20034;-49
2023/03/25 04:34:28;;;;;;;0.30;0.30;;;8.30;70.90;;;3.72;100.00;95278.25;4992061;28;20018;-50
2023/03/25 04:36:54;;;;;;;1.67;0.30;;;8.30;70.80;;;3.73;100.00;95279.06;4985935;28;20025;-49
2023/03/25 04:39:24;;;;;;;1.20;0.20;;;8.30;70.80;;;3.74;100.00;95280.66;4971230;28;20489;-47
2023/03/25 04:42:02;;;;;;;0.40;0.40;;;8.40;70.80;;;3.68;100.00;95281.59;4972691;28;20022;-50
2023/03/25 04:44:32;;;;;;;0.52;0.40;;;8.30;70.70;;;3.66;100.00;95283.63;4989877;28;20044;-49
2023/03/25 04:47:01;;;;;;;3.50;0.47;;;8.30;70.70;;;3.64;100.00;95273.34;4991732;28;20024;-47
2023/03/25 04:49:27;;;;;;;0.60;0.40;;;8.30;70.70;;;3.65;100.00;95276.78;4979977;28;20088;-50
2023/03/25 04:51:55;;;;;;;0.63;0.43;;;8.30;70.70;;;3.66;100.00;95278.38;4991160;28;20029;-47
2023/03/25 04:54:22;;;;;;;0.95;0.30;;;8.30;70.80;;;3.68;100.00;95277.09;4988049;28;20022;-51
2023/03/25 04:56:50;;;;;;;2.05;0.40;;;8.30;70.80;;;3.69;100.00;95270.00;4972028;28;20261;-49
2023/03/25 04:59:18;;;;;;;0.45;0.40;;;8.30;70.90;;;3.76;100.00;95269.88;4971074;28;20117;-47
2023/03/25 05:01:45;;;;;;;0.65;0.40;;;8.40;70.90;;;3.75;100.00;95278.84;4971458;28;20388;-49
2023/03/25 05:04:16;;;;;;;1.00;0.50;;;8.40;70.90;;;3.75;100.00;95277.00;4970979;28;20056;-47
2023/03/25 05:06:49;;;;;;;0.30;0.30;;;8.30;70.90;;;3.76;100.00;95278.63;4971554;28;20093;-49
2023/03/25 05:09:23;;;;;;;0.40;0.30;;;8.30;70.80;;;3.74;100.00;95287.78;4974994;28;20452;-47
2023/03/25 05:11:52;;;;;;;1.35;0.45;;;8.30;70.80;;;3.71;100.00;95297.72;4991710;28;20079;-51
2023/03/25 05:14:21;;;;;;;0.40;0.40;;;8.30;70.90;;;3.72;100.00;95301.16;4990693;28;20030;-49
2023/03/25 05:16:48;;;;;;;1.33;0.43;;;8.30;71.60;;;3.74;100.00;95307.00;4990299;28;20384;-47
2023/03/25 05:19:17;;;;;;;3.90;1.63;;;8.30;70.80;;;3.74;100.00;95311.50;5017358;23;20527;-56
2023/03/25 05:21:44;;;;;;;1.50;0.60;;;8.30;70.80;;;3.75;100.00;95303.34;4990098;28;20026;-54
2023/03/25 05:24:12;;;;;;;0.45;0.40;;;8.40;70.90;;;3.68;100.00;95298.19;4990630;28;20025;-52
2023/03/25 05:26:41;;;;;;;2.67;0.55;;;8.40;70.90;;;3.71;100.00;95308.25;4994025;28;20076;-54
2023/03/25 05:29:14;;;;;;;1.08;0.80;;;8.40;71.00;;;3.74;100.00;95308.84;4994376;28;20047;-57
2023/03/25 05:31:47;;;;;;;0.70;0.70;;;8.40;71.00;;;3.76;100.00;95319.94;4982419;28;20459;-56
2023/03/25 05:34:15;;;;;;;0.90;0.75;;;8.40;71.00;;;3.78;100.00;95321.31;4976010;28;20030;-57
2023/03/25 05:36:42;;;;;;;3.33;0.57;;;8.40;71.00;;;3.77;100.00;95321.56;4979268;28;20089;-56
2023/03/25 05:39:09;;;;;;;1.17;0.32;;;8.40;71.00;;;3.81;100.00;95323.50;4995305;28;20087;-56
2023/03/25 05:41:38;;;;;;;0.35;0.30;;;8.40;71.90;;;3.83;100.00;95316.19;4995167;28;20022;-55
2023/03/25 05:44:13;;;;;;;6.90;0.70;;;8.50;71.10;;;3.87;100.00;95295.44;4979861;28;20084;-56
2023/03/25 05:46:39;;;;;;;1.33;0.50;;;8.50;71.20;;;3.89;100.00;95294.19;4975920;28;20488;-56
2023/03/25 05:49:05;;;;;;;0.50;0.47;;;8.50;71.10;;;3.92;100.00;95300.84;4974877;28;20026;-56
2023/03/25 05:51:36;;;;;;;0.60;0.50;;;8.50;71.00;;;3.93;100.00;95297.16;4975157;28;20030;-56
2023/03/25 05:54:07;;;;;;;1.88;0.60;;;8.60;71.10;;;3.92;100.00;95293.72;4975447;28;20026;-55
2023/03/25 05:56:35;;;;;;;1.65;0.65;;;8.60;71.00;;;3.99;100.00;95298.09;4974859;28;20397;-54
2023/03/25 05:59:02;;;;;;;1.58;1.02;;;8.70;70.90;;;4.03;100.00;95299.22;4975427;28;20084;-56
2023/03/25 06:01:29;;;;;;;2.60;0.68;;;8.80;70.90;;;4.07;100.00;95295.88;4974501;28;20084;-54
2023/03/25 06:03:56;;;;;;;0.60;0.60;;;8.90;70.90;;;4.14;100.00;95293.16;4975474;28;20057;-56
2023/03/25 06:06:24;;;;;;;1.00;0.77;;;9.00;70.70;;;4.17;100.00;95298.75;4974625;28;20018;-54
2023/03/25 06:08:50;;;;;;;0.98;0.57;;;9.00;70.70;;;4.22;100.00;95297.25;4975030;28;20030;-54
2023/03/25 06:11:19;;;;;;;0.98;0.70;;;9.10;70.60;;;4.25;100.00;95292.31;4975161;28;20113;-55
2023/03/25 06:13:50;;;;;;;0.90;0.60;;;9.20;70.70;;;4.34;100.00;95295.41;4974544;28;20098;-56
2023/03/25 06:16:26;;;;;;;1.65;0.85;;;9.20;70.60;;;4.39;100.00;95291.06;4975326;28;20484;-54
2023/03/25 06:18:58;;;;;;;3.13;0.70;;;9.30;70.70;;;4.50;100.00;95305.25;4980622;28;20153;-56
2023/03/25 06:21:26;;;;;;;0.93;0.63;;;9.40;70.70;;;4.48;100.00;95290.66;4994227;28;20030;-54
2023/03/25 06:23:53;;;;;;;2.10;0.95;;;9.40;70.70;;;4.60;100.00;95294.09;4994179;28;20280;-56
2023/03/25 06:26:23;;;;;;;1.30;0.60;;;9.50;70.60;;;4.71;100.00;95295.91;4992241;28;20028;-57
2023/03/25 06:28:49;;;;;;;2.55;0.60;;;9.60;70.60;;;4.77;100.00;95297.59;4994331;28;20029;-54
2023/03/25 06:31:25;;;;;;;0.85;0.68;;;9.70;70.60;;;4.83;100.00;95301.16;4993381;28;20045;-56
2023/03/25 06:33:53;;;;;;;0.57;0.50;;;9.80;71.30;;;4.88;100.00;95296.75;4994146;28;20029;-57
2023/03/25 06:36:19;;;;;;;1.25;0.65;;;9.90;70.40;;;4.90;100.00;95296.53;4993100;28;20026;-56
2023/03/25 06:38:49;;;;;;;0.65;0.50;;;9.90;70.20;;;4.92;100.00;95297.09;4993961;28;20032;-54
2023/03/25 06:41:20;;;;;;;1.45;0.57;;;10.00;70.20;;;4.95;100.00;95293.16;4994216;28;20021;-55
2023/03/25 06:43:48;;;;;;;3.83;0.65;;;10.10;70.20;;;5.09;100.00;95303.22;4993235;28;20040;-57
2023/03/25 06:46:15;;;;;;;3.78;0.70;;;10.10;70.20;;;5.12;100.00;95301.16;4985270;28;20389;-57
2023/03/25 06:48:41;;;;;;;3.85;0.80;;;10.10;70.10;;;5.14;100.00;95299.88;4988916;28;20026;-57
2023/03/25 06:51:07;;;;;;;3.17;0.70;;;10.10;70.20;;;5.18;100.00;95295.72;4993326;28;20501;-57
2023/03/25 06:53:33;;;;;;;2.70;0.80;;;10.20;70.30;;;5.19;100.00;95297.31;4992981;28;20496;-55
2023/03/25 06:55:59;;;;;;;2.63;0.80;;;10.20;70.30;;;5.33;100.00;95303.91;4983496;28;20108;-56
2023/03/25 06:58:33;;;;;;;4.47;1.15;;;10.30;70.30;;;5.36;100.00;95302.63;4985640;28;20080;-57
2023/03/25 07:01:04;;;;;;;3.70;1.00;;;10.40;70.30;;;5.42;100.00;95292.94;4982713;28;20432;-57
2023/03/25 07:03:30;;;;;;;1.98;0.63;;;10.40;70.30;;;5.51;100.00;95300.22;4975707;28;20441;-57
2023/03/25 07:05:56;;;;;;;6.00;0.80;;;10.40;70.10;;;5.62;100.00;95303.84;4983965;28;20116;-57
2023/03/25 07:08:22;;;;;;;1.17;0.70;;;10.50;70.00;;;5.65;100.00;95303.38;4990155;28;20013;-55
2023/03/25 07:10:49;;;;;;;1.23;0.80;;;10.60;70.00;;;5.74;100.00;95301.94;4975922;28;20022;-57
2023/03/25 07:13:15;;;;;;;2.17;0.80;;;10.80;69.90;;;6.03;100.00;95301.84;4978235;28;20545;-57
2023/03/25 07:15:42;;;;;;;2.72;0.80;;;11.20;69.80;;;6.46;98.85;95290.56;4989417;28;20022;-52
2023/03/25 07:18:08;;;;;;;1.52;0.73;;;11.70;70.00;;;6.75;95.50;95300.16;4973458;28;20030;-54
2023/03/25 07:20:34;;;;;;;3.28;0.80;;;12.00;69.70;;;6.95;94.75;95306.47;4992714;28;20050;-57
2023/03/25 07:23:00;;;;;;;2.13;0.90;;;12.30;69.40;;;6.91;91.51;95297.44;4991999;28;20037;-57
2023/03/25 07:25:26;;;;;;;3.80;1.15;;;12.40;68.90;;;7.01;92.30;95298.59;4985392;28;20456;-58
2023/03/25 07:27:51;;;;;;;1.17;0.80;;;12.50;68.40;;;7.05;91.29;95304.97;4993031;28;20443;-58
2023/03/25 07:30:17;;;;;;;1.58;0.57;;;12.60;68.00;;;7.03;90.38;95301.78;4977478;28;20228;-57
2023/03/25 07:32:46;;;;;;;1.95;0.60;;;12.70;67.60;;;7.00;91.42;95315.53;4981097;28;20524;-58
2023/03/25 07:35:12;;;;;;;1.33;0.70;;;12.70;67.20;;;7.04;91.76;95312.13;4981119;28;20058;-58
2023/03/25 07:37:38;;;;;;;1.92;0.90;;;12.70;67.00;;;7.13;90.91;95308.00;4980791;28;20065;-58
2023/03/25 07:40:05;;;;;;;1.85;0.80;;;12.60;67.00;;;7.14;92.06;95316.72;4972568;28;20044;-58
2023/03/25 07:42:31;;;;;;;2.33;0.70;;;12.60;67.10;;;7.11;91.61;95311.94;4973538;28;20453;-57
2023/03/25 07:44:57;;;;;;;2.92;0.70;;;12.50;67.10;;;6.96;91.06;95312.59;4984843;28;20025;-56
2023/03/25 07:47:23;;;;;;;5.80;0.77;;;12.50;67.00;;;6.87;90.94;95308.78;4992088;28;20022;-57
2023/03/25 07:49:49;;;;;;;2.53;0.73;;;12.40;66.80;;;6.95;92.96;95309.13;4990565;28;20021;-57
2023/03/25 07:52:15;;;;;;;3.35;0.90;;;12.40;66.70;;;6.85;91.45;95298.41;4988369;28;20543;-57
2023/03/25 07:54:40;;;;;;;5.43;0.63;;;12.40;66.70;;;6.87;92.32;95311.41;4983228;28;20120;-56
2023/03/25 07:57:06;;;;;;;2.50;0.80;;;12.30;66.60;;;6.93;93.07;95310.44;4989521;28;20451;-57
2023/03/25 07:59:32;;;;;;;1.50;0.80;;;12.30;66.70;;;6.88;92.82;95305.88;4988536;28;20033;-55
2023/03/25 08:01:58;;;;;;;1.40;0.68;;;12.40;66.70;;;6.99;93.27;95305.97;4985545;28;20064;-57
2023/03/25 08:04:24;;;;;;;2.20;0.80;;;12.30;66.70;;;6.97;92.79;95297.50;4985194;28;20022;-57
2023/03/25 08:06:50;;;;;;;2.05;0.88;;;12.40;66.70;;;6.92;93.62;95309.59;4975572;28;20025;-57
2023/03/25 08:09:15;;;;;;;1.63;0.70;;;12.40;66.50;;;6.87;93.03;95300.84;4988921;28;20033;-58
2023/03/25 08:11:41;;;;;;;1.05;0.80;;;12.30;66.40;;;6.80;92.29;95300.19;4990204;28;20487;-58
2023/03/25 08:14:07;;;;;;;4.22;1.00;;;12.30;66.40;;;6.73;94.24;95293.25;4991463;28;20092;-55
2023/03/25 08:16:33;;;;;;;2.85;0.60;;;12.10;66.30;;;6.67;95.09;95296.88;4992542;28;20033;-56
2023/03/25 08:18:59;;;;;;;1.38;0.80;;;12.10;66.30;;;6.59;94.38;95294.69;4985719;28;20092;-58
2023/03/25 08:21:26;;;;;;;2.13;0.77;;;12.00;66.30;;;6.60;95.84;95295.47;4986118;28;20500;-59
2023/03/25 08:23:57;;;;;;;2.85;0.77;;;11.90;66.30;;;6.51;95.36;95292.44;4983678;28;20396;-59
2023/03/25 08:26:28;;;;;;;0.90;0.63;;;11.90;66.40;;;6.48;96.01;95306.16;4991358;28;20365;-55
2023/03/25 08:28:56;;;;;;;3.60;0.90;;;11.70;66.40;;;6.55;97.88;95300.69;4991999;28;20109;-54
2023/03/25 08:31:25;;;;;;;3.88;0.95;;;11.60;66.60;;;6.40;96.72;95299.47;4991271;28;20396;-58
2023/03/25 08:33:52;;;;;;;4.60;0.80;;;11.50;66.80;;;6.45;99.13;95302.16;4974901;28;20431;-57
2023/03/25 08:36:18;;;;;;;3.25;0.90;;;11.40;66.90;;;6.43;99.91;95300.81;4991096;28;20025;-55
2023/03/25 08:38:46;;;;;;;6.78;1.08;;;11.30;67.20;;;6.33;100.00;95313.91;4990745;28;20017;-54
2023/03/25 08:41:12;;;;;;;2.90;0.90;;;11.30;67.40;;;6.36;100.00;95316.88;4989505;28;20047;-54
2023/03/25 08:43:38;;;;;;;5.47;0.80;;;11.20;67.60;;;6.39;100.00;95320.84;4979990;28;20013;-55
2023/03/25 08:46:04;;;;;;;4.57;1.05;;;11.10;67.80;;;6.44;100.00;95308.50;4992117;28;20041;-57
2023/03/25 08:48:30;;;;;;;2.72;1.02;;;11.20;68.10;;;6.47;100.00;95304.56;4990947;28;20112;-56
2023/03/25 08:50:57;;;;;;;3.58;0.98;;;11.30;68.20;;;6.54;100.00;95302.53;4989813;28;20140;-55
2023/03/25 08:53:24;;;;;;;2.70;1.00;;;11.40;68.20;;;6.52;100.00;95301.19;4987673;28;20499;-55
2023/03/25 08:55:56;;;;;;;2.20;0.90;;;11.50;68.20;;;6.66;100.00;95297.13;4991012;28;20108;-57
2023/03/25 08:58:24;;;;;;;4.78;1.13;;;11.70;68.20;;;6.74;100.00;95299.38;4991669;28;20026;-57
2023/03/25 09:00:54;;;;;;;1.60;1.08;;;11.80;68.20;;;6.80;100.00;95293.09;4995747;28;20036;-56
2023/03/25 09:03:23;;;;;;;5.65;1.20;;;12.00;68.20;;;6.82;98.60;95279.59;4998277;28;20065;-57
2023/03/25 09:05:49;;;;;;;3.92;1.00;;;12.00;68.10;;;6.80;98.63;95286.97;4998235;28;20045;-56
2023/03/25 09:08:16;;;;;;;5.15;0.90;;;12.10;67.80;;;6.92;99.95;95285.78;4997384;28;20057;-57
2023/03/25 09:10:42;;;;;;;2.83;0.90;;;12.10;67.70;;;7.02;99.88;95279.81;4998136;28;20468;-52
2023/03/25 09:13:08;;;;;;;2.85;1.25;;;12.30;67.70;;;7.01;98.24;95282.69;4997152;28;20117;-53
2023/03/25 09:15:34;;;;;;;5.32;0.85;;;12.30;67.60;;;6.98;97.33;95280.53;4998577;28;20105;-54
2023/03/25 09:18:00;;;;;;;2.10;0.88;;;12.30;67.40;;;7.02;98.53;95277.16;4998080;28;20038;-57
2023/03/25 09:20:26;;;;;;;1.70;0.93;;;12.20;67.40;;;6.94;97.05;95273.09;4996848;28;20034;-55
2023/03/25 09:22:52;;;;;;;3.30;1.20;;;12.10;67.40;;;6.94;98.00;95275.75;4980196;28;20026;-57
2023/03/25 09:25:18;;;;;;;2.95;0.90;;;12.10;67.40;;;6.88;96.84;95283.88;4997230;28;20499;-52
2023/03/25 09:27:44;;;;;;;3.42;0.95;;;12.00;67.40;;;6.82;97.06;95280.38;4998302;28;20045;-56
2023/03/25 09:30:11;;;;;;;2.65;0.95;;;12.00;67.30;;;6.70;96.50;95280.50;4997949;28;20380;-56
2023/03/25 09:32:37;;;;;;;2.00;1.00;;;12.00;67.20;;;6.86;97.17;95268.25;4997242;28;20492;-55
2023/03/25 09:35:04;;;;;;;3.22;1.00;;;12.10;67.10;;;6.98;97.94;95254.84;4997893;28;20423;-57
2023/03/25 09:37:30;;;;;;;3.42;1.00;;;12.40;67.20;;;7.19;97.95;95264.59;4996991;28;20057;-56
2023/03/25 09:39:56;;;;;;;4.15;1.05;;;12.60;67.10;;;7.32;96.96;95262.59;4997815;28;20041;-57
2023/03/25 09:43:07;;;;;;;2.53;0.95;;;12.90;67.80;;;7.68;98.12;95260.25;4996889;28;20021;-57
2023/03/25 09:45:42;;;;;;;3.05;1.13;;;13.20;66.90;;;7.93;96.98;95259.63;4981498;28;20049;-53
2023/03/25 09:48:43;;;;;;;5.78;1.40;;;13.50;66.90;;;8.24;96.51;95250.81;4997974;28;20025;-58
2023/03/25 09:51:27;;;;;;;6.95;1.30;;;13.90;66.60;;;8.52;92.59;95262.09;4991950;28;20135;-57
2023/03/25 09:54:32;;;;;;;5.55;1.58;;;14.40;67.10;;;8.72;89.19;95256.09;4996989;28;20018;-57
2023/03/25 09:57:12;;;;;;;3.03;1.20;;;14.80;65.30;;;9.22;88.73;95262.59;4976962;28;20477;-54
2023/03/25 09:59:47;;;;;;;4.00;1.08;;;15.30;64.90;;;9.41;82.80;95261.03;4978293;28;20411;-56
2023/03/25 10:02:29;;;;;;;4.78;1.17;;;15.90;63.80;;;9.90;83.18;95262.34;5000578;28;20046;-57
2023/03/25 10:05:37;;;;;;;3.67;0.90;;;16.40;63.30;;;9.60;77.04;95268.50;4978386;28;20577;-59
2023/03/25 10:08:34;;;;;;;8.00;1.23;;;16.70;61.60;;;9.57;80.89;95279.66;4992410;28;20491;-59
2023/03/25 10:11:17;;;;;;;6.45;1.10;;;16.60;60.40;;;9.55;86.29;95295.06;4996483;28;20559;-56
2023/03/25 10:14:14;;;;;;;2.70;1.13;;;16.50;60.10;;;9.29;83.93;95288.94;4992435;28;20101;-59
2023/03/25 10:17:25;;;;;;;5.00;1.10;;;16.40;59.70;;;9.23;83.58;95267.63;4994609;28;20029;-58
2023/03/25 10:20:33;;;;;;;1.70;0.73;;;16.40;59.40;;;9.27;79.94;95289.16;4992118;28;20452;-59
2023/03/25 10:23:43;;;;;;;1.40;0.90;;;16.50;59.20;;;8.99;78.28;95283.28;4994292;28;20120;-60
2023/03/25 10:27:01;;;;;;;0.75;0.60;;;16.40;58.50;;;9.14;79.63;95282.50;4993350;28;20025;-59
2023/03/25 10:29:45;;;;;;;1.60;0.80;;;16.40;58.40;;;9.27;77.98;95268.72;4989017;28;20037;-59
2023/03/25 10:32:29;;;;;;;1.08;0.60;;;16.50;58.20;;;9.07;76.91;95278.50;4976813;28;20477;-57
2023/03/25 10:34:58;;;;;;;1.77;0.80;;;16.50;57.40;;;9.14;76.56;95263.09;4994424;28;20503;-59
2023/03/25 10:37:38;;;;;;;1.48;0.80;;;16.80;56.90;;;9.35;77.09;95278.03;5002286;28;20108;-59
2023/03/25 10:40:32;;;;;;;2.97;0.75;;;16.70;56.80;;;9.45;77.77;95280.69;5012900;28;20120;-58
2023/03/25 10:43:26;;;;;;;2.03;0.95;;;16.60;57.00;;;9.53;74.56;95270.59;5005803;28;20026;-59
2023/03/25 10:46:30;;;;;;;0.63;0.60;;;16.70;57.10;;;9.56;75.70;95278.88;4994098;28;20036;-58
2023/03/25 10:48:56;;;;;;;2.22;0.70;;;16.80;56.50;;;9.78;73.92;95280.44;4993139;28;20488;-59
2023/03/25 10:51:35;;;;;;;3.42;0.80;;;17.10;56.30;;;10.49;73.69;95277.69;4993598;28;20125;-59
2023/03/25 10:54:02;;;;;;;2.30;0.90;;;17.80;56.20;;;10.96;74.70;95287.13;4994221;28;20122;-59